Terminal Aerodrome Forecast
Issued by NWS

Home | Current Version | Previous Version | Graphics & Text | Print | Product List | Glossary On
Versions: 1 2 3 4 5 6 7 8 9 10 11 12 13 14 15 16 17 18 19 20 21
708
FTUS43 KABR 221339 AAB
TAFATY
TAF AMD
KATY 221339Z 2214/2312 13006KT 6SM BR SCT002
     FM221430 14010KT P6SM FEW130
     FM221900 14010KT P6SM FEW130
     FM230300 VRB06KT P6SM SCT250=

USA.gov is the U.S. government's official web portal to all federal, state and local government web resources and services.